Time;durP1;ratioP1;P1;durP2;ratioP2;P2;SDS_P1;SDS_P2;PMS_P1;PMS_P2;Temp;Humidity;BMP_temperature;BMP_pressure;BME280_temperature;BME280_humidity;BME280_pressure;Samples;Min_cycle;Max_cycle;Signal;HPM_P1;HPM_P2
2023/12/07 00:02:03;;;;;;;7.33;5.43;;;5.00;99.90;;;;;;5019627;28;20493;-81
2023/12/07 00:04:30;;;;;;;6.88;4.60;;;5.00;99.90;;;;;;5004856;28;20141;-82
2023/12/07 00:06:57;;;;;;;7.13;4.32;;;5.00;99.90;;;;;;5015236;28;20049;-82
2023/12/07 00:09:24;;;;;;;6.50;3.83;;;5.00;99.90;;;;;;5016065;28;20510;-82
2023/12/07 00:11:51;;;;;;;4.93;3.60;;;4.90;99.90;;;;;;5014731;28;20050;-80
2023/12/07 00:14:17;;;;;;;5.85;4.53;;;4.80;99.90;;;;;;5017043;28;20066;-81
2023/12/07 00:16:44;;;;;;;5.07;3.45;;;4.80;99.90;;;;;;5018286;28;20047;-83
2023/12/07 00:19:11;;;;;;;13.18;4.45;;;4.70;99.90;;;;;;5021632;28;20062;-81
2023/12/07 00:21:37;;;;;;;6.10;4.15;;;4.70;99.90;;;;;;5021653;28;20051;-82
2023/12/07 00:24:04;;;;;;;7.07;3.85;;;4.70;99.90;;;;;;5017564;28;20042;-81
2023/12/07 00:26:31;;;;;;;5.22;3.45;;;4.60;99.90;;;;;;5026260;28;20081;-83
2023/12/07 00:28:58;;;;;;;6.25;3.90;;;4.70;99.90;;;;;;5005445;28;20053;-83
2023/12/07 00:31:24;;;;;;;5.07;3.67;;;4.60;99.90;;;;;;5022838;28;20046;-81
2023/12/07 00:33:51;;;;;;;7.30;4.03;;;4.60;99.90;;;;;;5018787;28;20049;-83
2023/12/07 00:36:18;;;;;;;6.72;4.05;;;4.50;99.90;;;;;;5015055;28;20085;-82
2023/12/07 00:38:45;;;;;;;4.95;3.58;;;4.50;99.90;;;;;;5019784;28;20100;-80
2023/12/07 00:41:12;;;;;;;6.35;3.75;;;4.40;99.90;;;;;;5013299;28;20065;-83
2023/12/07 00:43:39;;;;;;;6.90;3.95;;;4.40;99.90;;;;;;5000996;28;20050;-83
2023/12/07 00:46:09;;;;;;;6.80;4.22;;;4.40;99.90;;;;;;5005141;28;20083;-83
2023/12/07 00:48:36;;;;;;;6.90;4.38;;;4.30;99.90;;;;;;5013321;28;20441;-84
2023/12/07 00:51:03;;;;;;;7.43;4.05;;;4.30;99.90;;;;;;5017778;28;20048;-82
2023/12/07 00:53:29;;;;;;;6.20;4.15;;;4.20;99.90;;;;;;5017451;28;20049;-83
2023/12/07 00:55:56;;;;;;;4.75;3.35;;;4.10;99.90;;;;;;5014969;28;20038;-81
2023/12/07 00:58:23;;;;;;;10.00;4.05;;;4.10;99.90;;;;;;5003924;28;20083;-82
2023/12/07 01:00:50;;;;;;;6.82;3.92;;;4.00;99.90;;;;;;5012509;28;20173;-82
2023/12/07 01:03:17;;;;;;;7.07;4.53;;;3.90;99.90;;;;;;5019286;28;20413;-82
2023/12/07 01:05:44;;;;;;;7.60;4.75;;;3.80;99.90;;;;;;5025445;28;20068;-81
2023/12/07 01:08:11;;;;;;;7.13;4.78;;;3.80;99.90;;;;;;5018711;28;20065;-82
2023/12/07 01:10:38;;;;;;;7.60;4.95;;;3.80;99.90;;;;;;5001876;28;20153;-81
2023/12/07 01:13:05;;;;;;;9.27;5.20;;;3.70;99.90;;;;;;5018984;28;20158;-83
2023/12/07 01:15:32;;;;;;;7.82;4.63;;;3.70;99.90;;;;;;5012726;28;20403;-83
2023/12/07 01:17:59;;;;;;;7.95;4.85;;;3.70;99.90;;;;;;5015266;28;20041;-84
2023/12/07 01:20:26;;;;;;;8.85;4.68;;;3.60;99.90;;;;;;5012365;28;20083;-84
2023/12/07 01:22:53;;;;;;;4.93;3.60;;;3.60;99.90;;;;;;5019843;28;20062;-83
2023/12/07 01:25:21;;;;;;;6.00;3.75;;;3.50;99.90;;;;;;5016025;28;20053;-81
2023/12/07 01:27:49;;;;;;;6.07;2.85;;;3.50;99.90;;;;;;5015926;28;20048;-81
2023/12/07 01:30:16;;;;;;;6.75;3.17;;;3.40;99.90;;;;;;5014164;28;20132;-82
2023/12/07 01:32:43;;;;;;;5.72;2.95;;;3.40;99.90;;;;;;5032094;28;20399;-82
2023/12/07 01:35:10;;;;;;;8.20;3.28;;;3.30;99.90;;;;;;5017097;28;20050;-80
2023/12/07 01:37:37;;;;;;;4.30;3.03;;;3.30;99.90;;;;;;5013124;28;20069;-81
2023/12/07 01:40:09;;;;;;;4.22;2.90;;;3.30;99.90;;;;;;5019321;28;20037;-80
2023/12/07 01:42:39;;;;;;;4.18;2.85;;;3.20;99.90;;;;;;5017862;28;20050;-80
2023/12/07 01:45:06;;;;;;;;;;;3.10;99.90;;;;;;5020219;28;20112;-81
2023/12/07 01:47:35;;;;;;;4.35;2.67;;;3.10;99.90;;;;;;4991871;28;19964;-81
2023/12/07 01:50:07;;;;;;;4.63;2.40;;;3.10;99.90;;;;;;5019027;28;20461;-81
2023/12/07 01:52:38;;;;;;;4.40;2.53;;;3.10;99.90;;;;;;5015690;28;20046;-80
2023/12/07 01:55:08;;;;;;;4.80;3.05;;;3.10;99.90;;;;;;5015626;28;20038;-81
2023/12/07 01:57:36;;;;;;;4.85;3.13;;;3.10;99.90;;;;;;5022129;28;20047;-80
2023/12/07 02:00:06;;;;;;;4.32;3.00;;;3.10;99.90;;;;;;5018084;28;20045;-82
2023/12/07 02:02:33;;;;;;;5.55;3.15;;;3.10;99.90;;;;;;5013101;28;20050;-82
2023/12/07 02:05:00;;;;;;;5.65;2.58;;;3.00;99.90;;;;;;5013181;28;20077;-81
2023/12/07 02:07:27;;;;;;;5.10;2.58;;;3.00;99.90;;;;;;5019623;28;20119;-82
2023/12/07 02:09:54;;;;;;;6.10;3.15;;;3.00;99.90;;;;;;5008129;28;20042;-81
2023/12/07 02:12:21;;;;;;;7.18;3.10;;;3.00;99.90;;;;;;5017757;28;20057;-81
2023/12/07 02:14:48;;;;;;;4.43;3.13;;;2.90;99.90;;;;;;5012446;28;20057;-82
2023/12/07 02:17:26;;;;;;;7.13;3.20;;;2.90;99.90;;;;;;5019434;28;20482;-81
2023/12/07 02:20:05;;;;;;;4.45;3.03;;;2.90;99.90;;;;;;5016462;28;20046;-81
2023/12/07 02:22:41;;;;;;;5.80;2.85;;;2.90;99.90;;;;;;5005206;28;20053;-80
2023/12/07 02:25:10;;;;;;;5.45;3.42;;;2.90;99.90;;;;;;5007166;28;20050;-82
2023/12/07 02:27:42;;;;;;;6.25;3.20;;;2.90;99.90;;;;;;5012700;28;20046;-82
2023/12/07 02:30:10;;;;;;;5.43;3.22;;;2.80;99.90;;;;;;5012027;28;20054;-82
2023/12/07 02:32:42;;;;;;;5.03;3.15;;;2.80;99.90;;;;;;5014456;28;20053;-82
2023/12/07 02:35:12;;;;;;;4.72;2.83;;;2.80;99.90;;;;;;5013368;28;20056;-82
2023/12/07 02:37:43;;;;;;;;;;;2.70;99.90;;;;;;5012009;28;20057;-80
2023/12/07 02:40:14;;;;;;;4.50;2.22;;;2.70;99.90;;;;;;5008521;28;19921;-83
2023/12/07 02:42:42;;;;;;;6.85;2.25;;;2.70;99.90;;;;;;5019375;28;20061;-81
2023/12/07 02:45:11;;;;;;;3.58;2.65;;;2.60;99.90;;;;;;5010879;28;20545;-81
2023/12/07 02:47:38;;;;;;;3.70;2.78;;;2.60;99.90;;;;;;4993760;28;20077;-81
2023/12/07 02:50:07;;;;;;;4.90;2.60;;;2.60;99.90;;;;;;5018450;28;20046;-81
2023/12/07 02:52:34;;;;;;;3.08;2.20;;;2.50;99.90;;;;;;5011508;28;20446;-81
2023/12/07 02:55:01;;;;;;;3.38;2.28;;;2.50;99.90;;;;;;5020984;28;20038;-80
2023/12/07 02:57:27;;;;;;;2.80;2.20;;;2.50;99.90;;;;;;5008681;28;20046;-82
2023/12/07 02:59:55;;;;;;;3.63;2.90;;;2.40;99.90;;;;;;5017758;28;20053;-80
2023/12/07 03:02:22;;;;;;;5.82;2.83;;;2.40;99.90;;;;;;5009122;28;20502;-81
2023/12/07 03:04:49;;;;;;;6.38;2.75;;;2.40;99.90;;;;;;5012576;28;20100;-80
2023/12/07 03:07:16;;;;;;;3.90;2.65;;;2.40;99.90;;;;;;5016013;28;20050;-83
2023/12/07 03:09:43;;;;;;;7.18;3.08;;;2.40;99.90;;;;;;5015369;28;20057;-81
2023/12/07 03:12:09;;;;;;;4.82;2.97;;;2.40;99.90;;;;;;5024543;28;20073;-81
2023/12/07 03:14:36;;;;;;;4.20;2.90;;;2.40;99.90;;;;;;5011690;28;20108;-82
2023/12/07 03:17:04;;;;;;;7.10;3.30;;;2.40;99.90;;;;;;5014929;28;20038;-81
2023/12/07 03:19:31;;;;;;;4.82;3.15;;;2.40;99.90;;;;;;5011935;28;20050;-82
2023/12/07 03:21:57;;;;;;;4.55;2.90;;;2.40;99.90;;;;;;5021450;28;20050;-82
2023/12/07 03:24:24;;;;;;;3.67;2.88;;;2.40;99.90;;;;;;5023669;28;20050;-82
2023/12/07 03:26:51;;;;;;;6.53;3.72;;;2.40;99.90;;;;;;5026107;28;20109;-82
2023/12/07 03:29:18;;;;;;;4.22;3.00;;;2.30;99.90;;;;;;5022593;28;20046;-81
2023/12/07 03:31:44;;;;;;;3.15;2.53;;;2.30;99.90;;;;;;5026035;28;20050;-82
2023/12/07 03:34:15;;;;;;;3.80;2.88;;;2.30;99.90;;;;;;5030166;28;20054;-82
2023/12/07 03:36:51;;;;;;;5.63;3.05;;;2.30;99.90;;;;;;5020944;28;20145;-80
2023/12/07 03:39:18;;;;;;;4.95;2.70;;;2.30;99.90;;;;;;5023205;28;20049;-82
2023/12/07 03:41:45;;;;;;;4.43;2.30;;;2.20;99.90;;;;;;5018611;28;20050;-81
2023/12/07 03:44:12;;;;;;;3.03;2.47;;;2.20;99.90;;;;;;5024768;28;20128;-81
2023/12/07 03:46:39;;;;;;;3.55;2.47;;;2.20;99.90;;;;;;5029456;28;20050;-81
2023/12/07 03:49:05;;;;;;;4.35;2.65;;;2.20;99.90;;;;;;5033083;28;20065;-82
2023/12/07 03:51:32;;;;;;;3.65;2.60;;;2.20;99.90;;;;;;5017022;28;20043;-81
2023/12/07 03:53:59;;;;;;;3.10;2.15;;;2.20;99.90;;;;;;5026213;28;20077;-81
2023/12/07 03:56:28;;;;;;;4.15;2.92;;;2.10;99.90;;;;;;5027250;28;20047;-81
2023/12/07 03:58:55;;;;;;;4.10;2.85;;;2.10;99.90;;;;;;5028740;28;20054;-81
2023/12/07 04:01:23;;;;;;;3.42;2.50;;;2.10;99.90;;;;;;5024243;28;20084;-81
2023/12/07 04:03:51;;;;;;;5.35;3.17;;;2.10;99.90;;;;;;5003324;28;20057;-81
2023/12/07 04:06:18;;;;;;;4.82;3.30;;;2.00;99.90;;;;;;5027251;28;20046;-81
2023/12/07 04:08:46;;;;;;;6.35;3.38;;;2.00;99.90;;;;;;5028714;28;20051;-80
2023/12/07 04:11:14;;;;;;;4.18;2.70;;;2.00;99.90;;;;;;5032138;28;20050;-82
2023/12/07 04:13:41;;;;;;;5.50;2.90;;;2.00;99.90;;;;;;5020527;28;20050;-81
2023/12/07 04:16:09;;;;;;;8.88;3.38;;;2.00;99.90;;;;;;5013816;28;20100;-82
2023/12/07 04:18:36;;;;;;;15.07;5.50;;;2.00;99.90;;;;;;5022140;28;20081;-83
2023/12/07 04:21:05;;;;;;;15.10;6.57;;;1.90;99.90;;;;;;5016062;28;20068;-82
2023/12/07 04:23:31;;;;;;;11.20;6.00;;;2.00;99.90;;;;;;5002260;28;20050;-83
2023/12/07 04:25:58;;;;;;;21.77;6.95;;;2.00;99.90;;;;;;5011008;28;20050;-83
2023/12/07 04:28:25;;;;;;;20.95;8.23;;;2.00;99.90;;;;;;5015952;28;20049;-81
2023/12/07 04:30:52;;;;;;;27.02;7.97;;;2.00;99.90;;;;;;5020241;28;20531;-82
2023/12/07 04:33:19;;;;;;;22.77;8.93;;;2.00;99.90;;;;;;5015722;28;20077;-82
2023/12/07 04:35:46;;;;;;;23.90;8.27;;;2.00;99.90;;;;;;5005486;28;20096;-82
2023/12/07 04:38:12;;;;;;;22.88;9.50;;;2.00;99.90;;;;;;5032247;28;20111;-82
2023/12/07 04:40:39;;;;;;;21.70;9.48;;;2.00;99.90;;;;;;5027278;28;20142;-82
2023/12/07 04:43:06;;;;;;;20.38;9.35;;;2.00;99.90;;;;;;5015395;28;20056;-82
2023/12/07 04:45:33;;;;;;;16.50;8.18;;;2.00;99.90;;;;;;5013991;28;20045;-82
2023/12/07 04:48:00;;;;;;;10.82;6.00;;;2.00;99.90;;;;;;5015629;28;20050;-82
2023/12/07 04:50:27;;;;;;;12.15;5.20;;;2.00;99.90;;;;;;5012993;28;20049;-82
2023/12/07 04:52:54;;;;;;;10.25;4.78;;;2.10;99.90;;;;;;5017260;28;20553;-80
2023/12/07 04:55:21;;;;;;;8.77;4.63;;;2.10;99.90;;;;;;5012125;28;20050;-81
2023/12/07 04:57:48;;;;;;;11.18;5.38;;;2.20;99.90;;;;;;5011272;28;20129;-81
2023/12/07 05:00:15;;;;;;;11.93;5.63;;;2.20;99.90;;;;;;5009783;28;20053;-82
2023/12/07 05:02:41;;;;;;;12.07;6.15;;;2.30;99.90;;;;;;5010661;28;20476;-82
2023/12/07 05:05:09;;;;;;;15.65;6.20;;;2.40;99.90;;;;;;5015555;28;20050;-82
2023/12/07 05:07:35;;;;;;;10.98;5.85;;;2.40;99.90;;;;;;4998295;28;20124;-82
2023/12/07 05:10:03;;;;;;;10.52;5.68;;;2.50;99.90;;;;;;5015793;28;20042;-82
2023/12/07 05:12:30;;;;;;;11.75;5.22;;;2.50;99.90;;;;;;5019839;28;20046;-83
2023/12/07 05:14:56;;;;;;;8.55;4.97;;;2.60;99.90;;;;;;5017866;28;20050;-81
2023/12/07 05:17:23;;;;;;;5.97;4.05;;;2.60;99.90;;;;;;5017342;28;20093;-83
2023/12/07 05:19:50;;;;;;;9.45;5.07;;;2.60;99.90;;;;;;5014546;28;20109;-82
2023/12/07 05:22:17;;;;;;;10.48;5.70;;;2.70;99.90;;;;;;5013274;28;20132;-82
2023/12/07 05:24:44;;;;;;;14.77;6.45;;;2.70;99.90;;;;;;5018156;28;20053;-82
2023/12/07 05:27:10;;;;;;;19.08;8.50;;;2.80;99.90;;;;;;5018211;28;20050;-83
2023/12/07 05:29:37;;;;;;;16.90;8.38;;;2.80;99.90;;;;;;5008640;28;20077;-82
2023/12/07 05:32:06;;;;;;;15.82;9.27;;;2.80;99.90;;;;;;5013537;28;20099;-82
2023/12/07 05:34:33;;;;;;;23.88;9.63;;;2.90;99.90;;;;;;5019406;28;20095;-83
2023/12/07 05:37:00;;;;;;;19.02;10.32;;;2.90;99.90;;;;;;5017144;28;20141;-82
2023/12/07 05:39:27;;;;;;;22.27;10.68;;;3.00;99.90;;;;;;5018568;28;20050;-83
2023/12/07 05:41:53;;;;;;;21.90;10.75;;;3.00;99.90;;;;;;4995476;28;20058;-82
2023/12/07 05:44:22;;;;;;;29.15;11.05;;;3.00;99.90;;;;;;5017898;28;20054;-83
2023/12/07 05:46:49;;;;;;;17.75;9.10;;;3.00;99.90;;;;;;5011234;28;20469;-83
2023/12/07 05:49:16;;;;;;;17.75;9.68;;;3.10;99.90;;;;;;5017711;28;20042;-82
2023/12/07 05:51:43;;;;;;;21.27;9.98;;;3.10;99.90;;;;;;5016221;28;20084;-82
2023/12/07 05:54:10;;;;;;;25.73;11.18;;;3.10;99.90;;;;;;5013382;28;20045;-83
2023/12/07 05:56:37;;;;;;;19.40;10.50;;;3.10;99.90;;;;;;5020768;28;20046;-83
2023/12/07 05:59:03;;;;;;;24.48;11.30;;;3.10;99.90;;;;;;5024356;28;20046;-82
2023/12/07 06:01:30;;;;;;;25.88;10.77;;;3.10;99.90;;;;;;5017109;28;20103;-82
2023/12/07 06:03:57;;;;;;;21.33;11.00;;;3.10;99.90;;;;;;5024321;28;20138;-83
2023/12/07 06:06:24;;;;;;;19.33;11.05;;;3.10;99.90;;;;;;5017224;28;20077;-83
2023/12/07 06:08:51;;;;;;;27.15;13.43;;;3.10;99.90;;;;;;5010744;28;20042;-81
2023/12/07 06:11:18;;;;;;;23.83;13.63;;;3.10;99.90;;;;;;5015990;28;20413;-83
2023/12/07 06:13:44;;;;;;;37.00;14.15;;;3.10;99.90;;;;;;5008394;28;20054;-81
2023/12/07 06:16:13;;;;;;;28.17;13.98;;;3.10;99.90;;;;;;5014912;28;20115;-82
2023/12/07 06:18:40;;;;;;;24.67;13.35;;;3.10;99.90;;;;;;5005486;28;20064;-83
2023/12/07 06:21:07;;;;;;;29.23;13.50;;;3.20;99.90;;;;;;5013469;28;20113;-82
2023/12/07 06:23:35;;;;;;;29.63;15.73;;;3.20;99.90;;;;;;5012881;28;20042;-83
2023/12/07 06:26:02;;;;;;;28.38;14.40;;;3.20;99.90;;;;;;5018438;28;20391;-82
2023/12/07 06:28:29;;;;;;;25.67;14.15;;;3.20;99.90;;;;;;5001898;28;20116;-83
2023/12/07 06:30:57;;;;;;;21.30;12.60;;;3.20;99.90;;;;;;5010363;28;20549;-82
2023/12/07 06:33:24;;;;;;;27.65;12.15;;;3.20;99.90;;;;;;5013088;28;20038;-83
2023/12/07 06:35:51;;;;;;;25.98;12.55;;;3.10;99.90;;;;;;4997376;28;20129;-83
2023/12/07 06:38:17;;;;;;;19.67;11.70;;;3.00;99.90;;;;;;5023594;28;20037;-83
2023/12/07 06:40:48;;;;;;;21.20;11.73;;;3.00;99.90;;;;;;4996120;28;20073;-82
2023/12/07 06:43:15;;;;;;;21.70;11.40;;;3.10;99.90;;;;;;5014960;28;20077;-83
2023/12/07 06:45:42;;;;;;;21.88;11.18;;;3.10;99.90;;;;;;5008461;28;20565;-82
2023/12/07 06:48:09;;;;;;;20.48;11.15;;;3.10;99.90;;;;;;5002254;28;20128;-82
2023/12/07 06:50:36;;;;;;;18.42;11.43;;;3.10;99.90;;;;;;5011885;28;20648;-82
2023/12/07 06:53:03;;;;;;;17.95;9.82;;;3.00;99.90;;;;;;5000231;28;20177;-83
2023/12/07 06:55:30;;;;;;;19.00;10.00;;;3.00;99.90;;;;;;4996628;28;20046;-82
2023/12/07 06:57:56;;;;;;;18.17;10.52;;;3.00;99.90;;;;;;5011642;28;20125;-82
2023/12/07 07:00:24;;;;;;;19.00;11.30;;;3.00;99.90;;;;;;5012793;28;20045;-83
2023/12/07 07:02:51;;;;;;;16.92;9.75;;;3.00;99.90;;;;;;5012948;28;20097;-83
2023/12/07 07:05:17;;;;;;;13.65;8.95;;;3.10;99.90;;;;;;5020277;28;20117;-83
2023/12/07 07:07:44;;;;;;;14.73;8.60;;;3.10;99.90;;;;;;5012513;28;20058;-82
2023/12/07 07:10:12;;;;;;;14.73;8.45;;;3.10;99.90;;;;;;5004614;28;20049;-83
2023/12/07 07:12:40;;;;;;;12.40;7.32;;;3.20;99.90;;;;;;5012433;28;20038;-82
2023/12/07 07:15:08;;;;;;;12.13;7.25;;;3.20;99.90;;;;;;5014298;28;20050;-82
2023/12/07 07:17:35;;;;;;;15.57;8.63;;;3.20;99.90;;;;;;4995055;28;20042;-82
2023/12/07 07:20:02;;;;;;;15.15;8.13;;;3.20;99.90;;;;;;5008261;28;20050;-83
2023/12/07 07:22:28;;;;;;;13.52;7.75;;;3.20;99.90;;;;;;5020723;28;20045;-83
2023/12/07 07:24:55;;;;;;;17.80;8.50;;;3.30;99.90;;;;;;5019763;28;20077;-81
2023/12/07 07:27:22;;;;;;;15.32;8.27;;;3.30;99.90;;;;;;5021615;28;20505;-82
2023/12/07 07:29:49;;;;;;;20.55;9.07;;;3.30;99.90;;;;;;5014588;28;20053;-82
2023/12/07 07:32:16;;;;;;;16.75;8.35;;;3.30;99.90;;;;;;5001520;28;20042;-81
2023/12/07 07:34:43;;;;;;;15.57;8.55;;;3.40;99.90;;;;;;5004542;28;20115;-81
2023/12/07 07:37:10;;;;;;;14.85;8.05;;;3.40;99.90;;;;;;5000955;28;20088;-82
2023/12/07 07:39:37;;;;;;;21.13;10.35;;;3.40;99.90;;;;;;5016789;28;20042;-83
2023/12/07 07:42:04;;;;;;;23.08;11.25;;;3.40;99.90;;;;;;5016916;28;20054;-82
2023/12/07 07:44:31;;;;;;;21.27;10.90;;;3.50;99.90;;;;;;5014281;28;20043;-82
2023/12/07 07:46:58;;;;;;;25.05;11.82;;;3.50;99.90;;;;;;5015537;28;20517;-83
2023/12/07 07:49:24;;;;;;;31.70;12.20;;;3.40;99.90;;;;;;5013498;28;20046;-81
2023/12/07 07:51:51;;;;;;;27.15;12.82;;;3.40;99.90;;;;;;5014635;28;20042;-82
2023/12/07 07:54:18;;;;;;;25.60;13.25;;;3.50;99.90;;;;;;5005004;28;20394;-82
2023/12/07 07:56:45;;;;;;;33.35;14.63;;;3.40;99.90;;;;;;5017071;28;20046;-82
2023/12/07 07:59:12;;;;;;;25.90;13.35;;;3.50;99.90;;;;;;5003033;28;20050;-83
2023/12/07 08:01:38;;;;;;;32.65;15.02;;;3.50;99.90;;;;;;5017463;28;20102;-82
2023/12/07 08:04:05;;;;;;;27.45;14.07;;;3.60;99.90;;;;;;5013131;28;20050;-82
2023/12/07 08:06:32;;;;;;;27.83;14.00;;;3.60;99.90;;;;;;5018380;28;20038;-83
2023/12/07 08:09:03;;;;;;;33.15;15.45;;;3.60;99.90;;;;;;5015289;28;20050;-82
2023/12/07 08:11:30;;;;;;;29.42;14.32;;;3.70;99.90;;;;;;5024098;28;20129;-80
2023/12/07 08:13:57;;;;;;;31.52;15.68;;;3.70;99.90;;;;;;5015138;28;20073;-82
2023/12/07 08:16:23;;;;;;;34.92;17.88;;;3.70;99.90;;;;;;5015635;28;20076;-82
2023/12/07 08:18:50;;;;;;;33.55;17.33;;;3.80;99.90;;;;;;5014863;28;20120;-82
2023/12/07 08:21:21;;;;;;;33.22;16.80;;;3.80;99.90;;;;;;5014622;28;20045;-83
2023/12/07 08:23:54;;;;;;;33.08;17.10;;;3.80;99.90;;;;;;5013805;28;20104;-83
2023/12/07 08:26:21;;;;;;;32.25;16.63;;;3.80;99.90;;;;;;5014430;28;20096;-81
2023/12/07 08:28:48;;;;;;;34.25;16.88;;;3.80;99.90;;;;;;5015410;28;20045;-82
2023/12/07 08:31:15;;;;;;;27.42;16.35;;;3.90;99.90;;;;;;5013816;28;20088;-82
2023/12/07 08:33:42;;;;;;;41.88;17.48;;;3.90;99.90;;;;;;5017203;28;20042;-79
2023/12/07 08:36:10;;;;;;;32.60;16.30;;;3.90;99.90;;;;;;5012215;28;20057;-83
2023/12/07 08:38:36;;;;;;;34.67;14.80;;;4.00;99.90;;;;;;5018499;28;20061;-82
2023/12/07 08:41:03;;;;;;;26.10;14.27;;;4.00;99.90;;;;;;5015083;28;20050;-83
2023/12/07 08:43:30;;;;;;;28.48;14.50;;;3.90;99.90;;;;;;5018758;28;20092;-83
2023/12/07 08:45:57;;;;;;;30.48;13.70;;;3.90;99.90;;;;;;5014738;28;20077;-82
2023/12/07 08:48:27;;;;;;;26.42;13.85;;;3.80;99.90;;;;;;5014368;28;20096;-82
2023/12/07 08:50:54;;;;;;;33.13;14.45;;;3.70;99.90;;;;;;5014139;28;20046;-83
2023/12/07 08:53:21;;;;;;;30.13;13.90;;;3.60;99.90;;;;;;5019425;28;20046;-83
2023/12/07 08:55:48;;;;;;;30.15;13.95;;;3.70;99.90;;;;;;5014757;28;20482;-82
2023/12/07 08:58:15;;;;;;;31.70;15.30;;;3.70;99.90;;;;;;5014430;28;20046;-83
2023/12/07 09:00:42;;;;;;;29.25;14.80;;;3.70;99.90;;;;;;5015015;28;20133;-83
2023/12/07 09:03:08;;;;;;;39.53;17.80;;;3.70;99.90;;;;;;5017013;28;20054;-82
2023/12/07 09:05:35;;;;;;;28.55;15.02;;;3.80;99.90;;;;;;5019979;28;20052;-83
2023/12/07 09:08:02;;;;;;;28.75;16.83;;;3.80;99.90;;;;;;5009080;28;20046;-82
2023/12/07 09:10:29;;;;;;;29.98;15.10;;;3.90;99.90;;;;;;5016195;28;20249;-83
2023/12/07 09:12:56;;;;;;;25.05;13.63;;;3.90;99.90;;;;;;5012617;28;20038;-83
2023/12/07 09:15:23;;;;;;;31.63;14.55;;;3.80;99.90;;;;;;5002855;28;20073;-82
2023/12/07 09:17:50;;;;;;;27.88;13.82;;;3.80;99.90;;;;;;5013875;28;20583;-83
2023/12/07 09:20:17;;;;;;;29.90;14.52;;;3.80;99.90;;;;;;5015901;28;20054;-82
2023/12/07 09:22:45;;;;;;;30.08;12.70;;;3.80;99.90;;;;;;5017829;28;20045;-82
2023/12/07 09:25:15;;;;;;;23.88;12.52;;;3.80;99.90;;;;;;5017337;28;20559;-83
2023/12/07 09:27:42;;;;;;;25.08;12.35;;;3.80;99.90;;;;;;5014656;28;20077;-83
2023/12/07 09:30:12;;;;;;;24.98;13.55;;;3.90;99.90;;;;;;5018608;28;20108;-83
2023/12/07 09:32:42;;;;;;;24.80;12.35;;;3.90;99.90;;;;;;5018471;28;20345;-83
2023/12/07 09:35:14;;;;;;;25.85;12.70;;;3.90;99.90;;;;;;5013921;28;20046;-80
2023/12/07 09:37:42;;;;;;;23.15;12.75;;;3.90;99.90;;;;;;5022295;28;20513;-83
2023/12/07 09:40:18;;;;;;;25.83;13.98;;;3.90;99.90;;;;;;5012950;28;20524;-84
2023/12/07 09:42:46;;;;;;;24.42;13.80;;;3.90;99.90;;;;;;5016739;28;20528;-83
2023/12/07 09:45:16;;;;;;;20.27;12.02;;;4.00;99.90;;;;;;5015358;28;20086;-84
2023/12/07 09:47:43;;;;;;;;;;;3.90;99.90;;;;;;5017243;28;20096;-84
2023/12/07 09:50:15;;;;;;;23.80;13.63;;;3.80;99.90;;;;;;5000436;28;19949;-82
2023/12/07 09:52:42;;;;;;;21.45;12.50;;;3.90;99.90;;;;;;5016530;28;20042;-83
2023/12/07 09:55:22;;;;;;;27.85;15.10;;;3.80;99.90;;;;;;5016156;28;20470;-83
2023/12/07 09:57:50;;;;;;;25.38;14.43;;;3.80;99.90;;;;;;5012255;28;20524;-85
2023/12/07 10:00:17;;;;;;;22.05;11.43;;;3.90;99.90;;;;;;5003506;28;20074;-84
2023/12/07 10:02:46;;;;;;;17.98;11.25;;;3.70;99.90;;;;;;5017936;28;20050;-85
2023/12/07 10:05:16;;;;;;;23.40;12.98;;;3.70;99.90;;;;;;5018676;28;20170;-83
2023/12/07 10:07:46;;;;;;;21.38;14.85;;;3.70;99.90;;;;;;5012015;28;20042;-80
2023/12/07 10:10:13;;;;;;;25.90;14.32;;;3.70;99.90;;;;;;5015988;28;20080;-83
2023/12/07 10:12:55;;;;;;;21.02;14.55;;;3.80;99.90;;;;;;5013040;28;20041;-83
2023/12/07 10:15:23;;;;;;;22.73;14.52;;;3.90;99.90;;;;;;5012661;28;20052;-81
2023/12/07 10:17:51;;;;;;;23.67;14.02;;;4.00;99.90;;;;;;5013378;28;20506;-81
2023/12/07 10:20:23;;;;;;;22.92;13.57;;;4.00;99.90;;;;;;5011884;28;20050;-83
2023/12/07 10:23:09;;;;;;;22.17;13.30;;;4.10;99.90;;;;;;5017198;28;20050;-82
2023/12/07 10:25:37;;;;;;;24.13;14.73;;;4.10;99.90;;;;;;5009609;28;20046;-81
2023/12/07 10:28:07;;;;;;;21.52;13.98;;;4.20;99.90;;;;;;5013628;28;20045;-83
2023/12/07 10:30:35;;;;;;;25.45;14.60;;;4.10;99.90;;;;;;5017952;28;20038;-80
2023/12/07 10:33:09;;;;;;;23.63;13.32;;;4.10;99.90;;;;;;5014276;28;20048;-84
2023/12/07 10:35:40;;;;;;;22.13;12.60;;;4.20;99.90;;;;;;5011965;28;20046;-82
2023/12/07 10:38:08;;;;;;;22.33;12.75;;;4.10;99.90;;;;;;5020444;28;20057;-84
2023/12/07 10:40:35;;;;;;;24.67;12.98;;;4.10;99.90;;;;;;5008793;28;20042;-84
2023/12/07 10:43:05;;;;;;;24.10;13.00;;;3.90;99.90;;;;;;5020089;28;20069;-84
2023/12/07 10:45:34;;;;;;;22.60;12.98;;;4.00;99.90;;;;;;5015124;28;20046;-83
2023/12/07 10:48:04;;;;;;;19.77;12.65;;;4.00;99.90;;;;;;5016535;28;20074;-85
2023/12/07 10:50:34;;;;;;;22.10;13.18;;;4.00;99.90;;;;;;5024748;28;20042;-84
2023/12/07 10:53:30;;;;;;;20.73;12.23;;;4.00;99.90;;;;;;5014679;28;20049;-84
2023/12/07 10:56:00;;;;;;;22.73;13.75;;;4.10;99.90;;;;;;5002515;28;20046;-84
2023/12/07 10:58:27;;;;;;;24.38;14.45;;;4.00;99.90;;;;;;5007522;28;20049;-81
2023/12/07 11:00:56;;;;;;;25.27;15.45;;;4.10;99.90;;;;;;5020299;28;20108;-84
2023/12/07 11:03:24;;;;;;;22.27;14.32;;;4.20;99.90;;;;;;5040153;28;20034;-83
2023/12/07 11:05:51;;;;;;;25.95;14.60;;;4.30;99.90;;;;;;5023506;28;20046;-83
2023/12/07 11:08:43;;;;;;;25.00;14.88;;;4.30;99.90;;;;;;5013702;28;20124;-83
2023/12/07 11:11:36;;;;;;;23.77;14.43;;;4.40;99.90;;;;;;5023113;28;20046;-82
2023/12/07 11:14:05;;;;;;;22.00;14.50;;;4.50;99.90;;;;;;5012087;28;20065;-84
2023/12/07 11:16:35;;;;;;;23.58;14.40;;;4.50;99.90;;;;;;5008817;28;20100;-84
2023/12/07 11:19:02;;;;;;;22.67;14.13;;;4.60;99.90;;;;;;5009168;28;20077;-85
2023/12/07 11:21:28;;;;;;;22.88;13.43;;;4.60;99.90;;;;;;5012997;28;20057;-85
2023/12/07 11:23:56;;;;;;;21.63;13.00;;;4.70;99.90;;;;;;5015372;28;20125;-84
2023/12/07 11:26:24;;;;;;;22.30;13.20;;;4.70;99.90;;;;;;5014909;28;20050;-85
2023/12/07 11:28:51;;;;;;;24.70;14.52;;;4.70;99.90;;;;;;5020379;28;20043;-85
2023/12/07 11:31:19;;;;;;;21.30;14.43;;;4.80;99.90;;;;;;5014546;28;20056;-84
2023/12/07 11:33:47;;;;;;;22.67;13.18;;;4.80;99.90;;;;;;5015780;28;20046;-84
2023/12/07 11:36:14;;;;;;;25.15;15.85;;;4.80;99.90;;;;;;5001597;28;20510;-82
2023/12/07 11:39:12;;;;;;;24.85;14.15;;;4.90;99.90;;;;;;5013568;28;20115;-82
2023/12/07 11:41:53;;;;;;;24.35;15.30;;;4.90;99.90;;;;;;5013917;28;20551;-82
2023/12/07 11:44:24;;;;;;;20.23;12.95;;;4.90;99.90;;;;;;4996969;28;20457;-84
2023/12/07 11:46:50;;;;;;;22.60;13.07;;;4.80;99.90;;;;;;5016192;28;20042;-84
2023/12/07 11:49:18;;;;;;;20.02;12.55;;;4.80;99.90;;;;;;5015522;28;20144;-84
2023/12/07 11:51:59;;;;;;;23.58;13.88;;;4.70;99.90;;;;;;5018595;28;20050;-82
2023/12/07 11:54:26;;;;;;;21.85;13.70;;;4.70;99.90;;;;;;5015448;28;20521;-84
2023/12/07 11:56:58;;;;;;;28.92;16.00;;;4.60;99.90;;;;;;5019191;28;20089;-83
2023/12/07 11:59:25;;;;;;;18.83;12.85;;;4.70;99.90;;;;;;5016960;28;20042;-84
2023/12/07 12:02:02;;;;;;;20.05;12.73;;;4.70;99.90;;;;;;5010896;28;20140;-82
2023/12/07 12:04:29;;;;;;;19.17;12.77;;;4.70;99.90;;;;;;5003203;28;20134;-84
2023/12/07 12:06:57;;;;;;;20.88;12.90;;;4.70;99.90;;;;;;5018913;28;20054;-81
2023/12/07 12:09:26;;;;;;;19.95;11.80;;;4.80;99.90;;;;;;5014816;28;20050;-84
2023/12/07 12:12:03;;;;;;;26.85;16.42;;;4.80;99.90;;;;;;5013753;28;20046;-83
2023/12/07 12:14:29;;;;;;;24.48;16.13;;;4.90;99.90;;;;;;5014732;28;20506;-83
2023/12/07 12:16:56;;;;;;;22.10;14.23;;;4.90;99.90;;;;;;5011533;28;20053;-83
2023/12/07 12:19:24;;;;;;;25.63;14.68;;;4.90;99.90;;;;;;4998316;28;20053;-83
2023/12/07 12:22:01;;;;;;;24.98;13.13;;;4.90;99.90;;;;;;5015796;28;20081;-85
2023/12/07 12:24:34;;;;;;;20.65;13.60;;;4.90;99.90;;;;;;5015767;28;20617;-83
2023/12/07 12:27:02;;;;;;;23.52;13.52;;;4.90;99.90;;;;;;5015319;28;20042;-84
2023/12/07 12:29:29;;;;;;;21.77;13.52;;;4.90;99.90;;;;;;5020056;28;20109;-84
2023/12/07 12:32:02;;;;;;;20.23;12.23;;;4.90;99.90;;;;;;5021241;28;20421;-83
2023/12/07 12:34:32;;;;;;;23.25;14.10;;;5.00;99.90;;;;;;5014211;28;20047;-84
2023/12/07 12:36:59;;;;;;;25.05;14.98;;;4.90;99.90;;;;;;5017083;28;20377;-84
2023/12/07 12:39:29;;;;;;;23.40;15.98;;;4.80;99.90;;;;;;5015084;28;20057;-84
2023/12/07 12:42:00;;;;;;;32.58;22.15;;;4.80;99.90;;;;;;5021472;28;20442;-84
2023/12/07 12:44:29;;;;;;;21.08;13.63;;;4.80;99.90;;;;;;5016672;28;20054;-84
2023/12/07 12:47:11;;;;;;;22.48;12.70;;;4.80;99.90;;;;;;5014612;28;20513;-84
2023/12/07 12:49:39;;;;;;;20.25;13.10;;;4.80;99.90;;;;;;5001090;28;20049;-84
2023/12/07 12:52:10;;;;;;;23.92;15.23;;;4.70;99.90;;;;;;5018670;28;20046;-84